Time;durP1;ratioP1;P1;durP2;ratioP2;P2;SDS_P1;SDS_P2;PMS_P1;PMS_P2;Temp;Humidity;BMP_temperature;BMP_pressure;BME280_temperature;BME280_humidity;BME280_pressure;Samples;Min_cycle;Max_cycle;Signal;HPM_P1;HPM_P2
2021/07/15 00:02:23;;;;;;;9.60;5.07;;;21.10;99.90;;;;;;4991339;28;20089;-76
2021/07/15 00:04:49;;;;;;;6.88;4.78;;;21.10;99.90;;;;;;4991457;28;20018;-77
2021/07/15 00:07:16;;;;;;;7.30;5.05;;;21.10;99.90;;;;;;4991014;28;20030;-77
2021/07/15 00:09:42;;;;;;;7.82;5.15;;;21.10;99.90;;;;;;5006325;28;20034;-76
2021/07/15 00:12:12;;;;;;;8.90;5.15;;;21.10;99.90;;;;;;4991411;28;20037;-77
2021/07/15 00:14:38;;;;;;;11.27;5.57;;;21.10;99.90;;;;;;4991357;28;20498;-76
2021/07/15 00:17:05;;;;;;;8.45;5.20;;;21.00;99.90;;;;;;4990838;28;20054;-76
2021/07/15 00:19:31;;;;;;;8.38;5.20;;;21.00;99.90;;;;;;4991324;28;20038;-77
2021/07/15 00:21:57;;;;;;;9.13;5.47;;;21.00;99.90;;;;;;4991367;28;20041;-76
2021/07/15 00:24:24;;;;;;;9.27;5.38;;;21.00;99.90;;;;;;4991333;28;20049;-76
2021/07/15 00:26:51;;;;;;;9.48;6.45;;;21.00;99.90;;;;;;4990065;28;20035;-75
2021/07/15 00:29:16;;;;;;;9.85;6.18;;;21.00;99.90;;;;;;4994323;28;20022;-77
2021/07/15 00:31:42;;;;;;;8.18;5.28;;;21.00;99.90;;;;;;4993936;28;20034;-75
2021/07/15 00:34:08;;;;;;;8.40;5.20;;;21.00;99.90;;;;;;4995035;28;20026;-76
2021/07/15 00:36:34;;;;;;;8.35;5.25;;;21.00;99.90;;;;;;4994699;28;20069;-76
2021/07/15 00:39:00;;;;;;;9.65;5.43;;;21.00;99.90;;;;;;4994834;28;20018;-76
2021/07/15 00:41:25;;;;;;;9.05;5.28;;;21.00;99.90;;;;;;4995450;28;20030;-76
2021/07/15 00:43:51;;;;;;;7.22;5.28;;;21.00;99.90;;;;;;4994351;28;20022;-76
2021/07/15 00:46:17;;;;;;;7.78;5.63;;;21.00;99.90;;;;;;4993559;28;20034;-77
2021/07/15 00:48:42;;;;;;;7.72;5.10;;;21.00;99.90;;;;;;4994121;28;20062;-76
2021/07/15 00:51:09;;;;;;;8.50;4.93;;;21.00;99.90;;;;;;4994519;28;20034;-75
2021/07/15 00:53:36;;;;;;;7.75;4.97;;;21.00;99.90;;;;;;4994817;28;20105;-77
2021/07/15 00:56:02;;;;;;;8.52;5.38;;;21.00;99.90;;;;;;4994237;28;20036;-76
2021/07/15 00:58:29;;;;;;;11.57;5.75;;;21.00;99.90;;;;;;4994954;28;20030;-76
2021/07/15 01:00:55;;;;;;;10.90;5.70;;;21.00;99.90;;;;;;4994630;28;20422;-77
2021/07/15 01:03:22;;;;;;;8.75;5.70;;;21.00;99.90;;;;;;4994895;28;20026;-77
2021/07/15 01:05:50;;;;;;;7.60;5.13;;;21.00;99.90;;;;;;4994236;28;20030;-77
2021/07/15 01:08:16;;;;;;;9.50;5.60;;;21.00;99.90;;;;;;4993779;28;20025;-76
2021/07/15 01:10:49;;;;;;;6.63;4.60;;;21.00;99.90;;;;;;4994553;28;20034;-76
2021/07/15 01:13:15;;;;;;;9.88;5.38;;;20.90;99.90;;;;;;4995067;28;20019;-76
2021/07/15 01:15:51;;;;;;;9.77;5.00;;;20.90;99.90;;;;;;4994862;28;20566;-76
2021/07/15 01:18:26;;;;;;;9.20;5.38;;;20.90;99.90;;;;;;4994473;28;20426;-77
2021/07/15 01:21:19;;;;;;;10.13;5.22;;;20.90;99.90;;;;;;4994008;28;20486;-77
2021/07/15 01:24:07;;;;;;;8.13;5.07;;;20.90;99.90;;;;;;4994526;28;20034;-76
2021/07/15 01:27:01;;;;;;;9.88;5.57;;;20.90;99.90;;;;;;4992959;28;20154;-76
2021/07/15 01:29:48;;;;;;;8.65;5.35;;;20.90;99.90;;;;;;4993848;28;20030;-76
2021/07/15 01:32:17;;;;;;;9.70;5.07;;;20.90;99.90;;;;;;4994228;28;20085;-76
2021/07/15 01:34:43;;;;;;;8.95;4.88;;;20.90;99.90;;;;;;4994311;28;20023;-76
2021/07/15 01:37:11;;;;;;;7.72;5.07;;;20.90;99.90;;;;;;4993392;28;20042;-76
2021/07/15 01:39:41;;;;;;;7.32;4.47;;;20.90;99.90;;;;;;4992501;28;20029;-78
2021/07/15 01:42:10;;;;;;;7.93;5.10;;;20.90;99.90;;;;;;4993982;28;20026;-76
2021/07/15 01:44:36;;;;;;;8.73;5.80;;;20.90;99.90;;;;;;4993925;28;20018;-77
2021/07/15 01:47:04;;;;;;;10.15;5.63;;;20.90;99.90;;;;;;4993060;28;20045;-76
2021/07/15 01:49:30;;;;;;;9.63;4.95;;;20.90;99.90;;;;;;4993721;28;20022;-76
2021/07/15 01:51:57;;;;;;;8.48;5.18;;;20.90;99.90;;;;;;4993632;28;20037;-77
2021/07/15 01:54:24;;;;;;;9.00;4.78;;;20.90;99.90;;;;;;4993662;28;20042;-76
2021/07/15 01:56:50;;;;;;;11.88;6.35;;;20.90;99.90;;;;;;4993520;28;20077;-76
2021/07/15 01:59:21;;;;;;;6.65;4.60;;;20.90;99.90;;;;;;4993589;28;20088;-76
2021/07/15 02:01:49;;;;;;;9.20;5.43;;;20.90;99.90;;;;;;4993557;28;20022;-77
2021/07/15 02:04:15;;;;;;;8.68;5.47;;;20.90;99.90;;;;;;4992347;28;20054;-76
2021/07/15 02:06:42;;;;;;;6.90;4.70;;;20.90;99.90;;;;;;4993508;28;20418;-77
2021/07/15 02:09:10;;;;;;;7.45;4.97;;;20.80;99.90;;;;;;4992771;28;20529;-78
2021/07/15 02:11:37;;;;;;;7.75;4.93;;;20.80;99.90;;;;;;4992406;28;20272;-76
2021/07/15 02:14:05;;;;;;;6.70;4.82;;;20.80;99.90;;;;;;4993275;28;20033;-77
2021/07/15 02:16:32;;;;;;;9.40;5.40;;;20.80;99.90;;;;;;4992952;28;20042;-76
2021/07/15 02:19:00;;;;;;;9.20;4.68;;;20.80;99.90;;;;;;4993359;28;20110;-77
2021/07/15 02:21:28;;;;;;;7.63;4.95;;;20.80;99.90;;;;;;4992840;28;20030;-76
2021/07/15 02:23:56;;;;;;;9.18;5.28;;;20.80;99.90;;;;;;4991568;28;20118;-77
2021/07/15 02:26:23;;;;;;;8.68;4.78;;;20.80;99.90;;;;;;4992622;28;20026;-78
2021/07/15 02:28:49;;;;;;;7.82;4.35;;;20.80;99.90;;;;;;4993086;28;20023;-77
2021/07/15 02:31:18;;;;;;;8.38;4.63;;;20.80;99.90;;;;;;4993035;28;20027;-75
2021/07/15 02:33:49;;;;;;;8.52;4.40;;;20.80;99.90;;;;;;4993128;28;20057;-77
2021/07/15 02:36:18;;;;;;;6.57;4.85;;;20.90;99.90;;;;;;4993451;28;20037;-77
2021/07/15 02:38:46;;;;;;;6.47;4.35;;;20.80;99.90;;;;;;4993262;28;20033;-78
2021/07/15 02:41:12;;;;;;;9.63;4.85;;;20.80;99.90;;;;;;4993399;28;20030;-77
2021/07/15 02:43:38;;;;;;;7.20;4.65;;;20.80;99.90;;;;;;4993049;28;20394;-76
2021/07/15 02:46:03;;;;;;;8.45;5.55;;;20.90;99.90;;;;;;4992224;28;20022;-77
2021/07/15 02:48:29;;;;;;;8.13;4.60;;;20.80;99.90;;;;;;4992794;28;20431;-76
2021/07/15 02:50:54;;;;;;;8.93;4.93;;;20.80;99.90;;;;;;4990254;28;20442;-77
2021/07/15 02:53:20;;;;;;;5.97;4.15;;;20.80;99.90;;;;;;4992921;28;20030;-77
2021/07/15 02:55:52;;;;;;;8.32;4.43;;;20.80;99.90;;;;;;4992169;28;20030;-77
2021/07/15 02:58:26;;;;;;;9.57;5.00;;;20.80;99.90;;;;;;4992525;28;20104;-77
2021/07/15 03:00:59;;;;;;;9.90;5.40;;;20.80;99.90;;;;;;4991796;28;20023;-77
2021/07/15 03:03:45;;;;;;;7.88;5.05;;;20.80;99.90;;;;;;4992382;28;20081;-77
2021/07/15 03:06:19;;;;;;;8.48;4.97;;;20.80;99.90;;;;;;4992550;28;20562;-76
2021/07/15 03:08:57;;;;;;;7.13;4.35;;;20.80;99.90;;;;;;5007775;28;20390;-77
2021/07/15 03:11:36;;;;;;;8.73;4.28;;;20.80;99.90;;;;;;4990969;28;20402;-78
2021/07/15 03:14:02;;;;;;;8.80;5.05;;;20.80;99.90;;;;;;4990479;28;20026;-76
2021/07/15 03:16:27;;;;;;;6.43;4.65;;;20.80;99.90;;;;;;4991585;28;20510;-78
2021/07/15 03:18:55;;;;;;;7.85;4.47;;;20.80;99.90;;;;;;4992189;28;20049;-77
2021/07/15 03:21:24;;;;;;;7.80;4.13;;;20.80;99.90;;;;;;4992290;28;20062;-77
2021/07/15 03:23:54;;;;;;;6.72;4.10;;;20.80;99.90;;;;;;4992314;28;20018;-77
2021/07/15 03:26:21;;;;;;;8.60;4.82;;;20.80;99.90;;;;;;4990961;28;20038;-76
2021/07/15 03:28:50;;;;;;;8.10;4.38;;;20.80;99.90;;;;;;4991736;28;20022;-77
2021/07/15 03:31:16;;;;;;;9.40;4.82;;;20.80;99.90;;;;;;4992541;28;20068;-77
2021/07/15 03:33:42;;;;;;;6.72;4.30;;;20.80;99.90;;;;;;5007566;28;20368;-77
2021/07/15 03:36:10;;;;;;;7.35;4.18;;;20.80;99.90;;;;;;4991378;28;20030;-77
2021/07/15 03:38:40;;;;;;;8.90;5.22;;;20.80;99.90;;;;;;4991986;28;20030;-80
2021/07/15 03:41:08;;;;;;;6.10;3.90;;;20.80;99.90;;;;;;4991202;28;20419;-78
2021/07/15 03:43:35;;;;;;;7.65;4.13;;;20.80;99.90;;;;;;4992176;28;20053;-78
2021/07/15 03:46:02;;;;;;;7.05;4.20;;;20.80;99.90;;;;;;4991233;28;20034;-78
2021/07/15 03:48:29;;;;;;;8.80;4.00;;;20.70;99.90;;;;;;4992155;28;20018;-77
2021/07/15 03:51:01;;;;;;;8.85;4.50;;;20.80;99.90;;;;;;4990161;28;20038;-78
2021/07/15 03:53:28;;;;;;;7.97;4.50;;;20.70;99.90;;;;;;4991761;28;20030;-78
2021/07/15 03:55:55;;;;;;;8.00;4.18;;;20.70;99.90;;;;;;4991274;28;20026;-79
2021/07/15 03:58:22;;;;;;;7.13;3.90;;;20.70;99.90;;;;;;4991745;28;20034;-78
2021/07/15 04:00:50;;;;;;;5.90;3.85;;;20.70;99.90;;;;;;4991131;28;20026;-79
2021/07/15 04:03:21;;;;;;;8.40;4.70;;;20.70;99.90;;;;;;4990849;28;20096;-79
2021/07/15 04:05:50;;;;;;;7.45;4.25;;;20.80;99.90;;;;;;4990535;28;20027;-79
2021/07/15 04:08:18;;;;;;;7.93;4.65;;;20.70;99.90;;;;;;4991406;28;20521;-77
2021/07/15 04:10:45;;;;;;;7.72;4.07;;;20.70;99.90;;;;;;4990024;28;20033;-79
2021/07/15 04:13:13;;;;;;;7.55;4.18;;;20.70;99.90;;;;;;4992125;28;20026;-79
2021/07/15 04:15:51;;;;;;;6.85;3.83;;;20.70;99.90;;;;;;4991081;28;20088;-78
2021/07/15 04:18:19;;;;;;;9.15;4.65;;;20.70;99.90;;;;;;4991555;28;20031;-78
2021/07/15 04:20:46;;;;;;;6.65;4.22;;;20.70;99.90;;;;;;4991823;28;20034;-79
2021/07/15 04:23:12;;;;;;;6.43;3.90;;;20.70;99.90;;;;;;4991881;28;20105;-77
2021/07/15 04:25:39;;;;;;;8.00;4.43;;;20.70;99.90;;;;;;4990997;28;20072;-79
2021/07/15 04:28:05;;;;;;;8.55;4.65;;;20.70;99.90;;;;;;4991207;28;20022;-79
2021/07/15 04:30:31;;;;;;;6.85;4.45;;;20.70;99.90;;;;;;4990870;28;20517;-78
2021/07/15 04:33:06;;;;;;;8.48;4.18;;;20.70;99.90;;;;;;4990685;28;20108;-80
2021/07/15 04:35:33;;;;;;;5.03;3.85;;;20.70;99.90;;;;;;4990938;28;20033;-79
2021/07/15 04:38:00;;;;;;;7.60;4.80;;;20.70;99.90;;;;;;4989846;28;20057;-77
2021/07/15 04:40:27;;;;;;;6.90;3.78;;;20.70;99.90;;;;;;4991125;28;20014;-79
2021/07/15 04:42:57;;;;;;;7.30;3.97;;;20.70;99.90;;;;;;4990912;28;20038;-77
2021/07/15 04:45:27;;;;;;;6.20;3.78;;;20.70;99.90;;;;;;4989478;28;20037;-77
2021/07/15 04:47:54;;;;;;;7.82;4.50;;;20.70;99.90;;;;;;4990820;28;20022;-78
2021/07/15 04:50:24;;;;;;;9.10;4.55;;;20.70;99.90;;;;;;4990809;28;20030;-78
2021/07/15 04:52:59;;;;;;;7.20;4.68;;;20.70;99.90;;;;;;4991127;28;20165;-79
2021/07/15 04:55:26;;;;;;;8.18;4.10;;;20.70;99.90;;;;;;4990949;28;20034;-80
2021/07/15 04:57:53;;;;;;;8.88;4.15;;;20.70;99.90;;;;;;4990453;28;20047;-78
2021/07/15 05:00:20;;;;;;;9.68;3.85;;;20.70;99.90;;;;;;4990781;28;20026;-78
2021/07/15 05:02:54;;;;;;;6.72;4.25;;;20.70;99.90;;;;;;4990941;28;20037;-76
2021/07/15 05:05:20;;;;;;;7.25;4.10;;;20.70;99.90;;;;;;4991212;28;20101;-78
2021/07/15 05:07:45;;;;;;;6.97;4.25;;;20.70;99.90;;;;;;5005830;28;20109;-76
2021/07/15 05:10:12;;;;;;;7.85;4.13;;;20.60;99.90;;;;;;4991566;28;20026;-79
2021/07/15 05:12:38;;;;;;;8.57;4.63;;;20.70;99.90;;;;;;4990886;28;20030;-77
2021/07/15 05:15:06;;;;;;;7.40;4.68;;;20.60;99.90;;;;;;4993063;28;20028;-76
2021/07/15 05:17:32;;;;;;;6.97;4.45;;;20.70;99.90;;;;;;4975117;28;20478;-78
2021/07/15 05:19:59;;;;;;;7.70;3.75;;;20.70;99.90;;;;;;4981616;28;20553;-79
2021/07/15 05:22:25;;;;;;;5.47;3.75;;;20.60;99.90;;;;;;4994228;28;20035;-77
2021/07/15 05:24:50;;;;;;;7.90;4.65;;;20.60;99.90;;;;;;4993881;28;20490;-78
2021/07/15 05:27:16;;;;;;;6.15;3.75;;;20.60;99.90;;;;;;4993600;28;20041;-76
2021/07/15 05:29:42;;;;;;;7.75;4.40;;;20.60;99.90;;;;;;4994044;28;20099;-78
2021/07/15 05:32:08;;;;;;;5.10;3.65;;;20.60;99.90;;;;;;4993972;28;20113;-76
2021/07/15 05:34:34;;;;;;;6.97;3.67;;;20.60;99.90;;;;;;4992687;28;20040;-78
2021/07/15 05:37:01;;;;;;;6.90;3.95;;;20.70;99.90;;;;;;4994126;28;20042;-79
2021/07/15 05:39:27;;;;;;;7.68;3.95;;;20.60;99.90;;;;;;4994325;28;20027;-78
2021/07/15 05:41:53;;;;;;;5.57;3.83;;;20.60;99.90;;;;;;4993936;28;20049;-77
2021/07/15 05:44:18;;;;;;;6.18;3.80;;;20.60;99.90;;;;;;4993501;28;20053;-75
2021/07/15 05:46:44;;;;;;;7.95;4.57;;;20.60;99.90;;;;;;4993699;28;20045;-77
2021/07/15 05:49:09;;;;;;;8.07;4.13;;;20.60;99.90;;;;;;4993592;28;20022;-77
2021/07/15 05:51:35;;;;;;;6.95;4.10;;;20.60;99.90;;;;;;4989316;28;20065;-76
2021/07/15 05:54:01;;;;;;;6.90;3.92;;;20.60;99.90;;;;;;4974185;28;20018;-76
2021/07/15 05:56:26;;;;;;;8.02;3.97;;;20.60;99.90;;;;;;4992518;28;20042;-76
2021/07/15 05:58:52;;;;;;;5.95;3.80;;;20.60;99.90;;;;;;4993230;28;20022;-75
2021/07/15 06:01:19;;;;;;;6.70;4.20;;;20.60;99.90;;;;;;4993898;28;20034;-76
2021/07/15 06:03:46;;;;;;;7.05;4.30;;;20.60;99.90;;;;;;4993909;28;20026;-75
2021/07/15 06:06:12;;;;;;;11.13;4.80;;;20.60;99.90;;;;;;4993530;28;20058;-77
2021/07/15 06:08:37;;;;;;;7.47;4.30;;;20.60;99.90;;;;;;5008750;28;20053;-76
2021/07/15 06:11:03;;;;;;;10.25;5.18;;;20.60;99.90;;;;;;4992098;28;20406;-76
2021/07/15 06:13:29;;;;;;;8.93;4.53;;;20.60;99.90;;;;;;4993073;28;20439;-79
2021/07/15 06:15:54;;;;;;;8.15;4.15;;;20.60;99.90;;;;;;4992458;28;20045;-78
2021/07/15 06:18:21;;;;;;;11.50;4.32;;;20.60;99.90;;;;;;4993625;28;20031;-78
2021/07/15 06:20:47;;;;;;;9.77;5.18;;;20.60;99.90;;;;;;4992870;28;20035;-79
2021/07/15 06:23:13;;;;;;;15.07;5.80;;;20.60;99.90;;;;;;4993456;28;20033;-76
2021/07/15 06:25:38;;;;;;;13.63;6.25;;;20.60;99.90;;;;;;4990325;28;20038;-77
2021/07/15 06:28:04;;;;;;;14.00;5.03;;;20.60;99.90;;;;;;5008245;28;20023;-78
2021/07/15 06:30:30;;;;;;;13.02;6.20;;;20.60;99.90;;;;;;4993028;28;20422;-75
2021/07/15 06:32:57;;;;;;;18.85;6.07;;;20.60;99.90;;;;;;4993145;28;20027;-77
2021/07/15 06:35:26;;;;;;;17.30;6.32;;;20.60;99.90;;;;;;4992442;28;20034;-78
2021/07/15 06:37:54;;;;;;;14.90;6.28;;;20.60;99.90;;;;;;4992416;28;20037;-76
2021/07/15 06:40:20;;;;;;;14.02;6.10;;;20.60;99.90;;;;;;4992969;28;20605;-80
2021/07/15 06:42:47;;;;;;;11.27;5.82;;;20.60;99.90;;;;;;4992669;28;20027;-77
2021/07/15 06:45:13;;;;;;;14.63;6.85;;;20.60;99.90;;;;;;4992444;28;20019;-83
2021/07/15 06:47:39;;;;;;;14.30;6.65;;;20.60;99.90;;;;;;4992774;28;20030;-79
2021/07/15 06:50:07;;;;;;;13.65;5.50;;;20.70;99.90;;;;;;4992380;28;20040;-77
2021/07/15 06:52:34;;;;;;;14.02;6.15;;;20.70;99.90;;;;;;4992464;28;20026;-83
2021/07/15 06:55:01;;;;;;;17.15;7.25;;;20.70;99.90;;;;;;4987771;28;20457;-81
2021/07/15 06:57:28;;;;;;;9.63;5.97;;;20.70;99.90;;;;;;4987308;28;20098;-77
2021/07/15 06:59:53;;;;;;;17.50;5.90;;;20.70;99.90;;;;;;4973052;28;20053;-77
2021/07/15 07:02:19;;;;;;;15.63;6.25;;;20.70;99.90;;;;;;4973246;28;20450;-78
2021/07/15 07:04:45;;;;;;;13.27;6.20;;;20.70;99.90;;;;;;4972498;28;20388;-80
2021/07/15 07:07:10;;;;;;;14.68;6.57;;;20.70;99.90;;;;;;4972958;28;20106;-78
2021/07/15 07:09:36;;;;;;;11.75;5.78;;;20.70;99.90;;;;;;4988286;28;20027;-77
2021/07/15 07:12:02;;;;;;;15.00;6.10;;;20.70;99.90;;;;;;4972849;28;20042;-77
2021/07/15 07:14:27;;;;;;;15.13;6.22;;;20.70;99.90;;;;;;4973201;28;20019;-77
2021/07/15 07:16:53;;;;;;;16.05;6.10;;;20.70;99.90;;;;;;4972995;28;20534;-77
2021/07/15 07:19:19;;;;;;;14.15;5.90;;;20.80;99.90;;;;;;4973150;28;20480;-77
2021/07/15 07:21:44;;;;;;;13.63;6.20;;;20.80;99.90;;;;;;4973083;28;20022;-77
2021/07/15 07:24:10;;;;;;;15.35;6.00;;;20.80;99.90;;;;;;4972721;28;20057;-76
2021/07/15 07:26:36;;;;;;;12.68;5.88;;;20.80;99.90;;;;;;4973058;28;20042;-76
2021/07/15 07:29:01;;;;;;;11.10;5.53;;;20.80;99.90;;;;;;4972465;28;20534;-76
2021/07/15 07:31:27;;;;;;;12.50;5.38;;;20.80;99.90;;;;;;4972865;28;20042;-77
2021/07/15 07:33:53;;;;;;;10.88;5.60;;;20.80;99.90;;;;;;4972558;28;20023;-77
2021/07/15 07:36:19;;;;;;;13.73;6.32;;;20.80;99.90;;;;;;4986995;28;20064;-78
2021/07/15 07:38:45;;;;;;;11.98;6.20;;;20.80;99.90;;;;;;4973129;28;20081;-76
2021/07/15 07:41:11;;;;;;;11.68;6.15;;;20.80;99.90;;;;;;4973004;28;20035;-79
2021/07/15 07:43:37;;;;;;;14.05;5.68;;;20.80;99.90;;;;;;4987566;28;20034;-79
2021/07/15 07:46:04;;;;;;;10.73;5.75;;;20.80;99.90;;;;;;4972483;28;20027;-78
2021/07/15 07:48:30;;;;;;;13.48;6.28;;;20.80;99.90;;;;;;4972624;28;20090;-76
2021/07/15 07:50:58;;;;;;;10.27;5.70;;;20.80;99.90;;;;;;4972110;28;20019;-76
2021/07/15 07:53:25;;;;;;;10.65;6.22;;;20.80;99.90;;;;;;4972590;28;20027;-76
2021/07/15 07:55:51;;;;;;;11.48;6.00;;;20.80;99.90;;;;;;4972181;28;20031;-78
2021/07/15 07:58:16;;;;;;;10.60;5.57;;;20.80;99.90;;;;;;4972589;28;20555;-78
2021/07/15 08:00:42;;;;;;;13.50;5.93;;;20.80;99.90;;;;;;4972586;28;20038;-78
2021/07/15 08:03:08;;;;;;;10.57;5.57;;;20.90;99.90;;;;;;4972053;28;20499;-78
2021/07/15 08:05:38;;;;;;;11.90;5.30;;;20.90;99.90;;;;;;4972378;28;20034;-78
2021/07/15 08:08:04;;;;;;;12.75;5.90;;;20.80;99.90;;;;;;4972203;28;20046;-79
2021/07/15 08:10:29;;;;;;;13.95;5.68;;;20.90;99.90;;;;;;4987071;28;20046;-79
2021/07/15 08:12:55;;;;;;;12.27;5.90;;;20.90;99.90;;;;;;4972216;28;20574;-79
2021/07/15 08:15:21;;;;;;;11.02;5.93;;;20.90;99.90;;;;;;4972362;28;20419;-75
2021/07/15 08:17:47;;;;;;;10.30;6.10;;;20.90;99.90;;;;;;4970948;28;20070;-78
2021/07/15 08:20:13;;;;;;;10.55;5.75;;;20.90;99.90;;;;;;4972614;28;20407;-76
2021/07/15 08:22:40;;;;;;;11.68;5.78;;;20.90;99.90;;;;;;4972302;28;20038;-78
2021/07/15 08:25:07;;;;;;;12.52;5.50;;;20.90;99.90;;;;;;4971968;28;20026;-80
2021/07/15 08:27:33;;;;;;;13.15;5.93;;;20.90;99.90;;;;;;4971047;28;20022;-79
2021/07/15 08:29:58;;;;;;;12.35;6.22;;;20.90;99.90;;;;;;4971871;28;20031;-78
2021/07/15 08:32:24;;;;;;;6.63;5.20;;;20.90;99.90;;;;;;4970869;28;20026;-79
2021/07/15 08:34:50;;;;;;;9.75;5.45;;;20.90;99.90;;;;;;4972066;28;20114;-79
2021/07/15 08:37:15;;;;;;;9.25;5.32;;;20.90;99.90;;;;;;4972225;28;20395;-78
2021/07/15 08:39:41;;;;;;;14.73;6.35;;;20.90;99.90;;;;;;4972430;28;20034;-79
2021/07/15 08:42:08;;;;;;;9.98;5.40;;;20.90;99.90;;;;;;4971790;28;20027;-78
2021/07/15 08:44:37;;;;;;;11.80;5.63;;;20.90;99.90;;;;;;4971894;28;20046;-78
2021/07/15 08:47:03;;;;;;;12.63;5.38;;;20.90;99.90;;;;;;4971862;28;20029;-78
2021/07/15 08:49:29;;;;;;;10.23;5.75;;;20.90;99.90;;;;;;5005013;28;20030;-76
2021/07/15 08:51:56;;;;;;;13.23;5.35;;;20.90;99.90;;;;;;4975536;28;20027;-76
2021/07/15 08:54:31;;;;;;;9.65;5.53;;;20.90;99.90;;;;;;4975570;28;20051;-77
2021/07/15 08:56:57;;;;;;;8.82;5.22;;;20.90;99.90;;;;;;4975533;28;20090;-76
2021/07/15 08:59:25;;;;;;;10.88;5.13;;;21.00;99.90;;;;;;4975451;28;20023;-76
2021/07/15 09:01:52;;;;;;;9.20;5.40;;;21.00;99.90;;;;;;4975196;28;20039;-77
2021/07/15 09:04:20;;;;;;;12.73;5.95;;;21.00;99.90;;;;;;4975601;28;20049;-78
2021/07/15 09:06:46;;;;;;;14.73;5.72;;;21.00;99.90;;;;;;4975077;28;20038;-78
2021/07/15 09:09:12;;;;;;;12.98;5.55;;;21.00;99.90;;;;;;4975788;28;20051;-78
2021/07/15 09:11:39;;;;;;;9.45;5.82;;;21.00;99.90;;;;;;4975331;28;20070;-79
2021/07/15 09:14:42;;;;;;;11.45;5.93;;;21.00;99.90;;;;;;4974833;28;20074;-76
2021/07/15 09:17:07;;;;;;;9.07;5.22;;;21.00;99.90;;;;;;4974871;28;20096;-76
2021/07/15 09:19:33;;;;;;;12.77;6.18;;;21.00;99.90;;;;;;4975087;28;20498;-76
2021/07/15 09:22:13;;;;;;;12.20;5.75;;;21.00;99.90;;;;;;4974942;28;20026;-76
2021/07/15 09:24:40;;;;;;;12.43;5.68;;;21.00;99.90;;;;;;4975307;28;20476;-76
2021/07/15 09:27:25;;;;;;;10.02;5.28;;;21.00;99.90;;;;;;4974969;28;20058;-76
2021/07/15 09:30:12;;;;;;;9.60;5.13;;;21.00;99.90;;;;;;4974990;28;20022;-77
2021/07/15 09:32:53;;;;;;;10.23;5.25;;;21.00;99.90;;;;;;4975003;28;20023;-76
2021/07/15 09:35:31;;;;;;;10.32;5.85;;;21.00;99.90;;;;;;4989996;28;20027;-77
2021/07/15 09:38:14;;;;;;;10.07;5.68;;;21.00;99.90;;;;;;4974628;28;20122;-76
2021/07/15 09:40:44;;;;;;;11.15;5.30;;;21.00;99.90;;;;;;5005864;28;20391;-76
2021/07/15 09:43:21;;;;;;;12.70;5.55;;;21.00;99.90;;;;;;4974443;28;20447;-76
2021/07/15 09:45:49;;;;;;;10.00;5.35;;;21.00;99.90;;;;;;4974699;28;20019;-78
2021/07/15 09:48:19;;;;;;;12.75;5.93;;;21.10;99.90;;;;;;4975050;28;20058;-78
2021/07/15 09:50:47;;;;;;;10.50;5.53;;;21.10;99.90;;;;;;4974982;28;20037;-78
2021/07/15 09:53:15;;;;;;;9.75;5.50;;;21.10;99.90;;;;;;4974817;28;20410;-78
2021/07/15 09:55:41;;;;;;;10.18;5.60;;;21.10;99.90;;;;;;4974937;28;20046;-76
2021/07/15 09:58:09;;;;;;;10.45;5.05;;;21.10;99.90;;;;;;4974027;28;20074;-76
2021/07/15 10:00:36;;;;;;;9.65;5.70;;;21.10;99.90;;;;;;4974504;28;20023;-77
2021/07/15 10:03:03;;;;;;;13.57;6.05;;;21.10;99.90;;;;;;4974290;28;20027;-76
2021/07/15 10:05:29;;;;;;;9.45;5.80;;;21.10;99.90;;;;;;4974413;28;20015;-76
2021/07/15 10:08:07;;;;;;;11.45;5.68;;;21.10;99.90;;;;;;4974023;28;20023;-79
2021/07/15 10:10:33;;;;;;;10.95;5.60;;;21.10;99.90;;;;;;4974032;28;20038;-79
2021/07/15 10:13:14;;;;;;;8.45;4.90;;;21.10;99.90;;;;;;4974082;28;20030;-79
2021/07/15 10:15:40;;;;;;;11.68;5.85;;;21.20;99.90;;;;;;4974201;28;20033;-79
2021/07/15 10:18:06;;;;;;;12.75;5.70;;;21.20;99.90;;;;;;4973964;28;20092;-78
2021/07/15 10:20:32;;;;;;;10.98;5.95;;;21.20;99.90;;;;;;4974135;28;20023;-76
2021/07/15 10:22:58;;;;;;;11.60;6.20;;;21.20;99.90;;;;;;4973938;28;20035;-77
2021/07/15 10:25:23;;;;;;;8.43;5.78;;;21.20;99.90;;;;;;4974115;28;20106;-76
2021/07/15 10:27:49;;;;;;;9.98;5.78;;;21.20;99.90;;;;;;4973964;28;20031;-76
2021/07/15 10:30:18;;;;;;;10.98;6.13;;;21.20;99.90;;;;;;4974363;28;20026;-76
2021/07/15 10:32:44;;;;;;;8.32;5.78;;;21.20;99.90;;;;;;4974280;28;20042;-76
2021/07/15 10:35:16;;;;;;;9.55;6.32;;;21.30;99.90;;;;;;4973749;28;20102;-76
2021/07/15 10:37:45;;;;;;;12.00;6.50;;;21.30;99.90;;;;;;4973977;28;20035;-75
2021/07/15 10:40:14;;;;;;;8.95;5.95;;;21.30;99.90;;;;;;4974129;28;20037;-76
2021/07/15 10:42:40;;;;;;;12.77;6.95;;;21.30;99.90;;;;;;4973684;28;20031;-76
2021/07/15 10:45:08;;;;;;;7.82;5.35;;;21.30;99.90;;;;;;4973295;28;20055;-76
2021/07/15 10:47:36;;;;;;;11.93;5.97;;;21.30;99.90;;;;;;4972175;28;20543;-76
2021/07/15 10:50:07;;;;;;;11.32;6.03;;;21.30;99.90;;;;;;4973380;28;20073;-79
2021/07/15 10:52:34;;;;;;;14.95;6.85;;;21.30;99.90;;;;;;4988314;28;20027;-76
2021/07/15 10:55:01;;;;;;;11.02;6.32;;;21.30;99.90;;;;;;4973541;28;20065;-77
2021/07/15 10:57:27;;;;;;;11.07;6.55;;;21.30;99.90;;;;;;4988308;28;20507;-76
2021/07/15 10:59:53;;;;;;;10.45;6.88;;;21.30;99.90;;;;;;4972986;28;20073;-77
2021/07/15 11:02:22;;;;;;;13.23;6.15;;;21.40;99.90;;;;;;4973483;28;20023;-77
2021/07/15 11:04:48;;;;;;;12.88;6.82;;;21.30;99.90;;;;;;4973182;28;20078;-78
2021/07/15 11:07:17;;;;;;;12.07;6.60;;;21.30;99.90;;;;;;4988693;28;20023;-77
2021/07/15 11:09:43;;;;;;;10.80;5.97;;;21.40;99.90;;;;;;4973703;28;20023;-79
2021/07/15 11:12:29;;;;;;;10.93;5.78;;;21.40;99.90;;;;;;4987263;28;20043;-78
2021/07/15 11:15:10;;;;;;;13.85;6.93;;;21.40;99.90;;;;;;4972985;28;20026;-76
2021/07/15 11:17:47;;;;;;;16.45;6.88;;;21.40;99.90;;;;;;4973062;28;20042;-77
2021/07/15 11:20:28;;;;;;;12.98;7.35;;;21.40;99.90;;;;;;4973257;28;20019;-77
2021/07/15 11:22:56;;;;;;;9.45;6.60;;;21.40;99.90;;;;;;4972869;28;20045;-78
2021/07/15 11:25:28;;;;;;;11.00;6.00;;;21.40;99.90;;;;;;4972897;28;20039;-77
2021/07/15 11:28:03;;;;;;;15.63;6.38;;;21.40;99.90;;;;;;5004280;28;20440;-77
2021/07/15 11:30:34;;;;;;;10.40;6.47;;;21.40;99.90;;;;;;4973089;28;20554;-77
2021/07/15 11:33:22;;;;;;;9.98;6.05;;;21.50;99.90;;;;;;4972632;28;20138;-77
2021/07/15 11:36:08;;;;;;;10.30;6.03;;;21.50;99.90;;;;;;4972183;28;20027;-76
2021/07/15 11:38:38;;;;;;;10.93;6.13;;;21.50;99.90;;;;;;4972931;28;20045;-76
2021/07/15 11:41:12;;;;;;;9.95;6.07;;;21.50;99.90;;;;;;4972456;28;20034;-76
2021/07/15 11:43:47;;;;;;;16.42;6.72;;;21.50;99.90;;;;;;4972514;28;20026;-79
2021/07/15 11:46:24;;;;;;;10.80;6.63;;;21.50;99.90;;;;;;4972984;28;20030;-77
2021/07/15 11:48:58;;;;;;;11.82;6.88;;;21.50;99.90;;;;;;4972406;28;20535;-76
2021/07/15 11:51:43;;;;;;;10.75;6.60;;;21.50;99.90;;;;;;4972679;28;20372;-77
2021/07/15 11:54:19;;;;;;;11.15;5.85;;;21.50;99.90;;;;;;4972129;28;20058;-79
2021/07/15 11:57:00;;;;;;;15.07;6.22;;;21.50;99.90;;;;;;4972490;28;20035;-75
2021/07/15 11:59:36;;;;;;;11.32;6.32;;;21.60;99.90;;;;;;4972512;28;20030;-77
2021/07/15 12:02:28;;;;;;;14.60;6.47;;;21.50;99.90;;;;;;4972050;28;20027;-76
2021/07/15 12:05:20;;;;;;;12.73;6.10;;;21.60;99.90;;;;;;4972308;28;20608;-76
2021/07/15 12:08:15;;;;;;;12.57;6.25;;;21.60;99.90;;;;;;4972186;28;20057;-76
2021/07/15 12:10:52;;;;;;;12.18;6.25;;;21.60;99.90;;;;;;4972364;28;20395;-76
2021/07/15 12:13:19;;;;;;;14.20;6.57;;;21.60;99.90;;;;;;4972430;28;20479;-76
2021/07/15 12:15:50;;;;;;;11.38;5.97;;;21.60;99.90;;;;;;4971476;28;20077;-76
2021/07/15 12:18:18;;;;;;;9.43;5.88;;;21.60;99.90;;;;;;4972580;28;20181;-80
2021/07/15 12:20:55;;;;;;;9.40;5.90;;;21.60;99.90;;;;;;4972453;28;20027;-76
2021/07/15 12:23:37;;;;;;;12.40;6.13;;;21.60;99.90;;;;;;4972390;28;20487;-76
2021/07/15 12:26:06;;;;;;;10.60;6.45;;;21.70;99.90;;;;;;4975948;28;20023;-76
2021/07/15 12:28:32;;;;;;;10.23;5.43;;;21.60;99.90;;;;;;4974745;28;20035;-80
2021/07/15 12:31:10;;;;;;;10.75;5.97;;;21.60;99.90;;;;;;4975976;28;20086;-76
2021/07/15 12:33:44;;;;;;;10.13;4.85;;;21.70;99.90;;;;;;4975872;28;20386;-77
2021/07/15 12:36:25;;;;;;;11.63;6.55;;;21.60;99.90;;;;;;4990778;28;20101;-76
2021/07/15 12:38:52;;;;;;;10.32;5.85;;;21.70;99.90;;;;;;4975710;28;20042;-79
2021/07/15 12:41:22;;;;;;;12.27;6.20;;;21.70;99.90;;;;;;4975952;28;20023;-79
2021/07/15 12:43:54;;;;;;;9.27;5.60;;;21.70;99.90;;;;;;4975616;28;20081;-80
2021/07/15 12:46:29;;;;;;;13.07;5.45;;;21.70;99.90;;;;;;4990754;28;20029;-80
2021/07/15 12:49:00;;;;;;;9.98;5.72;;;21.60;99.90;;;;;;4975573;28;20042;-79
2021/07/15 12:51:29;;;;;;;13.45;5.43;;;21.60;99.90;;;;;;4975888;28;20106;-79
2021/07/15 12:53:55;;;;;;;9.57;5.55;;;21.60;99.90;;;;;;4975437;28;20031;-79